page 5276 of 1016509 registered users

eBook PostsUsers

  1. 0spike3david registered @ 2013-01-06 22:40:18, last login @ 2013-01-06 22:40:18
  2. 0nic1sky registered @ 2013-01-06 22:41:51, last login @ 2013-01-06 22:41:51
  3. 0enginenovel60 registered @ 2013-01-06 22:42:47, last login @ 2013-01-06 22:42:47
  4. 0polo96wish registered @ 2013-01-06 22:42:50, last login @ 2013-01-06 22:42:50
  5. 0help0voyage registered @ 2013-01-06 22:42:54, last login @ 2013-01-06 22:42:54
  6. 0baboon8iron registered @ 2013-01-06 22:42:56, last login @ 2013-01-06 22:42:56
  7. 0gramramie98 registered @ 2013-01-06 22:43:16, last login @ 2013-01-06 22:43:16
  8. 0airbusplane61 registered @ 2013-01-06 22:43:47, last login @ 2013-01-06 22:43:47
  9. 0august95saw registered @ 2013-01-06 22:43:51, last login @ 2013-01-06 22:43:51
  10. 0sailorbroker5 registered @ 2013-01-06 22:44:19, last login @ 2013-01-06 22:44:19
  11. 0jam84game registered @ 2013-01-06 22:44:32, last login @ 2013-01-06 22:44:32
  12. 0yoke6may registered @ 2013-01-06 22:46:12, last login @ 2013-01-06 22:46:12
  13. 0party4spleen registered @ 2013-01-06 22:46:34, last login @ 2013-01-06 22:46:34
  14. 0light9rest registered @ 2013-01-06 22:46:45, last login @ 2013-01-06 22:46:45
  15. 0otter78zone registered @ 2013-01-06 22:47:51, last login @ 2013-01-06 22:47:51
  16. 0eight7spark registered @ 2013-01-06 22:47:55, last login @ 2013-01-06 22:47:55
  17. 0beachwasher40 registered @ 2013-01-06 22:48:14, last login @ 2013-01-06 22:48:14
  18. 0buttonwinter9 registered @ 2013-01-06 22:50:08, last login @ 2013-01-06 22:50:08
  19. 0coin5ship registered @ 2013-01-06 22:51:20, last login @ 2013-01-06 22:51:20
  20. 0bottom38iron registered @ 2013-01-06 22:54:12, last login @ 2013-01-06 22:54:12
  21. 0alarm80yew registered @ 2013-01-06 22:54:14, last login @ 2013-01-06 22:54:14
  22. 0year61toe registered @ 2013-01-06 22:54:29, last login @ 2013-01-06 22:54:29
  23. 0field21porch registered @ 2013-01-06 22:54:57, last login @ 2013-01-06 22:54:57
  24. 0soapburn41 registered @ 2013-01-06 22:55:25, last login @ 2013-01-06 22:55:25
  25. 0sheet60baboon registered @ 2013-01-06 22:56:19, last login @ 2013-01-06 22:56:19
  26. 0waiter7yogurt registered @ 2013-01-06 22:58:40, last login @ 2013-01-06 22:58:40
  27. 0designdebt6 registered @ 2013-01-06 22:59:44, last login @ 2013-01-06 22:59:44
  28. 0grouse3mirror registered @ 2013-01-06 23:03:24, last login @ 2013-01-06 23:03:24
  29. 0alloy40fowl registered @ 2013-01-06 23:04:07, last login @ 2013-01-06 23:04:07
  30. 0syria71iraq registered @ 2013-01-06 23:04:15, last login @ 2013-01-06 23:04:15
  31. 0run4kayak registered @ 2013-01-06 23:05:54, last login @ 2013-01-06 23:53:14
  32. 0madelyn198 registered @ 2013-01-06 23:07:39, last login @ 2013-01-06 23:07:39
  33. 0fork97course registered @ 2013-01-06 23:08:31, last login @ 2013-01-06 23:56:00
  34. 0glidermoney8 registered @ 2013-01-06 23:08:47, last login @ 2013-01-06 23:08:47
  35. 0ton56line registered @ 2013-01-06 23:08:55, last login @ 2013-01-06 23:08:55
  36. 0market3reason registered @ 2013-01-06 23:10:15, last login @ 2013-01-06 23:10:15
  37. 0poppylyric84 registered @ 2013-01-06 23:11:15, last login @ 2013-01-06 23:11:15
  38. 0poppy71white registered @ 2013-01-06 23:12:10, last login @ 2013-01-06 23:12:10
  39. 0epoxybody5 registered @ 2013-01-06 23:13:46, last login @ 2013-01-06 23:13:46
  40. 0donna5judge registered @ 2013-01-06 23:13:52, last login @ 2013-01-06 23:13:52
  41. 0girllamb1 registered @ 2013-01-06 23:15:07, last login @ 2013-01-06 23:15:07
  42. 0pilotsky04 registered @ 2013-01-06 23:15:25, last login @ 2013-01-06 23:15:25
  43. 0rmabbit3week registered @ 2013-01-06 23:15:43, last login @ 2013-01-06 23:51:07
  44. 0gasbomber12 registered @ 2013-01-06 23:18:04, last login @ 2013-01-06 23:18:04
  45. 0seapig3 registered @ 2013-01-06 23:18:58, last login @ 2013-01-06 23:56:31
  46. 0guilty6golf registered @ 2013-01-06 23:21:04, last login @ 2013-01-07 00:00:47
  47. 0gardenmilk40 registered @ 2013-01-06 23:21:27, last login @ 2013-01-06 23:21:27
  48. 0nishan_1984 registered @ 2013-01-06 23:21:37, last login @ 2013-01-06 23:29:39
  49. 0sheep9violin registered @ 2013-01-06 23:21:38, last login @ 2013-01-06 23:21:38
  50. 0santa72switch registered @ 2013-01-06 23:23:49, last login @ 2013-01-06 23:23:49
  51. 0woolen34food registered @ 2013-01-06 23:23:50, last login @ 2013-01-06 23:23:50
  52. 0rewardsign21 registered @ 2013-01-06 23:23:51, last login @ 2013-01-06 23:23:51
  53. 0skysleet45 registered @ 2013-01-06 23:24:39, last login @ 2013-01-06 23:24:39
  54. 0locketreason4 registered @ 2013-01-06 23:25:17, last login @ 2013-01-06 23:25:17
  55. 0vaulteagle8 registered @ 2013-01-06 23:25:58, last login @ 2013-01-06 23:25:58
  56. 0recesspart35 registered @ 2013-01-06 23:26:02, last login @ 2013-01-06 23:26:02
  57. 0dew91silk registered @ 2013-01-06 23:26:04, last login @ 2013-01-06 23:41:17
  58. 0whossyvemow registered @ 2013-01-06 23:26:28, last login @ 2013-01-06 23:26:28
  59. 0mencloth7 registered @ 2013-01-06 23:28:26, last login @ 2013-01-06 23:28:26
  60. 0alarm40route registered @ 2013-01-06 23:30:17, last login @ 2013-01-06 23:30:17
  61. 0may1bag registered @ 2013-01-06 23:32:10, last login @ 2013-01-06 23:32:10
  62. 0carpmargin7 registered @ 2013-01-06 23:32:51, last login @ 2013-01-06 23:32:51
  63. 0sledlock2 registered @ 2013-01-06 23:36:44, last login @ 2013-01-06 23:36:44
  64. 0lake99nancy registered @ 2013-01-06 23:38:07, last login @ 2013-01-06 23:38:07
  65. 0dthomas4 registered @ 2013-01-06 23:38:39, last login @ 2013-01-06 23:38:39
  66. 0taurus25april registered @ 2013-01-06 23:39:08, last login @ 2013-01-06 23:39:08
  67. 0valueraven0 registered @ 2013-01-06 23:40:26, last login @ 2013-01-06 23:40:26
  68. 0cinemamark13 registered @ 2013-01-06 23:40:44, last login @ 2013-01-06 23:40:44
  69. 0goal64case registered @ 2013-01-06 23:40:49, last login @ 2013-01-06 23:40:49
  70. 0season0tooth registered @ 2013-01-06 23:41:37, last login @ 2013-01-06 23:41:37
  71. 0swamptempo77 registered @ 2013-01-06 23:43:20, last login @ 2013-01-06 23:43:20
  72. 0allyson468 registered @ 2013-01-06 23:43:22, last login @ 2013-01-06 23:43:22
  73. 0math5locket registered @ 2013-01-06 23:43:43, last login @ 2013-01-06 23:43:43
  74. 0sensebeaver95 registered @ 2013-01-06 23:44:11, last login @ 2013-01-06 23:44:11
  75. 0crosskendo23 registered @ 2013-01-06 23:44:42, last login @ 2013-01-06 23:44:42
  76. 0harborcoach7 registered @ 2013-01-06 23:45:14, last login @ 2013-01-06 23:45:14
  77. 0wool0back registered @ 2013-01-06 23:46:42, last login @ 2013-01-06 23:46:42
  78. 0gender00second registered @ 2013-01-06 23:47:39, last login @ 2013-01-06 23:47:39
  79. 0filecollar4 registered @ 2013-01-06 23:48:11, last login @ 2013-01-06 23:48:11
  80. 0dockbeaver92 registered @ 2013-01-06 23:50:10, last login @ 2013-01-06 23:50:10
  81. 0tonguedead3 registered @ 2013-01-06 23:50:30, last login @ 2013-01-06 23:50:30
  82. 0corn8bail registered @ 2013-01-06 23:51:08, last login @ 2013-01-06 23:51:08
  83. 0ping80train registered @ 2013-01-06 23:53:57, last login @ 2013-01-06 23:53:57
  84. 0menu4zoo registered @ 2013-01-06 23:54:41, last login @ 2013-01-06 23:54:41
  85. 0skirtspain23 registered @ 2013-01-06 23:55:19, last login @ 2013-01-06 23:55:19
  86. 0feast85spot registered @ 2013-01-06 23:55:57, last login @ 2013-01-06 23:55:57
  87. 0violet37racing registered @ 2013-01-06 23:56:20, last login @ 2013-01-06 23:56:20
  88. 0nepal7state registered @ 2013-01-06 23:57:03, last login @ 2013-01-06 23:57:03
  89. 0nylonlinen3 registered @ 2013-01-06 23:57:22, last login @ 2013-01-06 23:57:22
  90. 0lilyppwy00p2z registered @ 2013-01-06 23:58:43, last login @ 2013-01-06 23:58:43
  91. 0snail16felony registered @ 2013-01-06 23:59:23, last login @ 2013-01-06 23:59:23
  92. 0soybucket8 registered @ 2013-01-06 23:59:48, last login @ 2013-01-06 23:59:48
  93. 0hockey1fine registered @ 2013-01-07 00:00:25, last login @ 2013-01-07 00:00:25
  94. 0tin7brazil registered @ 2013-01-07 00:00:30, last login @ 2013-01-07 00:00:30
  95. 0chair7rocket registered @ 2013-01-07 00:00:59, last login @ 2013-01-07 00:00:59
  96. 0authorquail0 registered @ 2013-01-07 00:01:35, last login @ 2013-01-07 00:01:35
  97. 0twvmqpivy registered @ 2013-01-07 00:02:40, last login @ 2013-01-07 00:02:40
  98. 0agejumper98 registered @ 2013-01-07 00:04:33, last login @ 2013-01-07 00:04:33
  99. 0expertdead4 registered @ 2013-01-07 00:12:35, last login @ 2013-01-07 00:12:35
  100. 0stewstudy8 registered @ 2013-01-07 00:14:09, last login @ 2013-01-07 00:14:09
  101. 0swampoi1 registered @ 2013-01-07 00:15:17, last login @ 2013-01-07 00:15:17

More...

[5286] [5285] [5284] [5283] [5282] [5281] [5280] [5279] [5278] [5277] [5276] [5275] [5274] [5273] [5272] [5271] [5270] [5269] [5268] [5267] ...[1]
Back to Top